Terminal Aerodrome Forecast
Issued by NWS Omaha/Valley, NE

Home | Current Version | Previous Version | Text Only | Print | Product List | Glossary On
Versions: 1 2 3 4 5 6 7 8 9 10 11 12 13 14 15 16 17 18 19 20 21 22 23 24 25 26 27 28 29 30 31 32 33 34 35 36 37 38 39 40 41 42 43 44 45 46 47 48 49 50
000
FTUS43 KOAX 220529
TAFLNK
TAF
KLNK 220529Z 2206/2306 00000KT P6SM SCT200
     FM220900 36005KT 2SM BR SCT100
     FM221300 34007KT 4SM BR OVC010
     FM221600 34011KT P6SM SCT035
     FM230500 34006KT P6SM SCT200=

USA.gov is the U.S. government's official web portal to all federal, state and local government web resources and services.